createdAt,value
2022-10-17T00:05:05.308Z,5.35
2022-10-17T00:11:47.638Z,5.55
2022-10-17T00:18:30.021Z,4.88
2022-10-17T00:25:12.480Z,5.65
2022-10-17T00:31:56.598Z,5.32
2022-10-17T00:38:40.191Z,6.00
2022-10-17T00:45:32.780Z,4.88
2022-10-17T00:52:20.372Z,6.03
2022-10-17T00:59:03.403Z,6.43
2022-10-17T01:05:46.640Z,6.50
2022-10-17T01:12:48.058Z,5.60
2022-10-17T01:20:18.513Z,8.13
2022-10-17T01:27:25.761Z,6.93
2022-10-17T01:34:15.378Z,7.13
2022-10-17T01:41:07.681Z,7.15
2022-10-17T01:47:52.174Z,6.82
2022-10-17T01:54:42.481Z,6.93
2022-10-17T02:01:28.399Z,7.47
2022-10-17T02:08:11.294Z,7.13
2022-10-17T02:15:25.714Z,7.53
2022-10-17T02:22:20.073Z,8.23
2022-10-17T02:29:16.920Z,7.60
2022-10-17T02:36:06.082Z,7.22
2022-10-17T02:42:51.076Z,7.18
2022-10-17T02:49:39.309Z,7.03
2022-10-17T02:56:22.341Z,7.05
2022-10-17T03:03:29.700Z,6.90
2022-10-17T03:10:16.530Z,7.10
2022-10-17T03:16:59.116Z,6.63
2022-10-17T03:23:42.480Z,7.43
2022-10-17T03:30:25.220Z,7.10
2022-10-17T03:37:07.630Z,8.38
2022-10-17T03:43:54.020Z,7.40
2022-10-17T03:50:37.079Z,6.85
2022-10-17T03:57:20.059Z,6.35
2022-10-17T04:04:02.941Z,7.03
2022-10-17T04:10:48.065Z,6.38
2022-10-17T04:17:35.902Z,6.57
2022-10-17T04:24:21.218Z,7.57
2022-10-17T04:31:13.660Z,8.65
2022-10-17T04:38:15.684Z,7.32
2022-10-17T04:45:01.062Z,7.78
2022-10-17T04:51:43.812Z,6.43
2022-10-17T04:58:32.989Z,7.07
2022-10-17T05:05:16.236Z,7.40
2022-10-17T05:12:00.980Z,7.90
2022-10-17T05:18:52.808Z,8.50
2022-10-17T05:25:35.712Z,7.15
2022-10-17T05:32:18.167Z,6.97
2022-10-17T05:39:01.577Z,8.23
2022-10-17T05:45:44.999Z,6.97
2022-10-17T05:52:33.300Z,8.63
2022-10-17T05:59:25.172Z,7.85
2022-10-17T06:06:14.585Z,7.05
2022-10-17T06:12:59.758Z,7.00
2022-10-17T06:19:45.078Z,7.25
2022-10-17T06:26:29.660Z,6.93
2022-10-17T06:33:12.568Z,7.13
2022-10-17T06:39:54.999Z,6.18
2022-10-17T06:46:40.056Z,6.53
2022-10-17T06:53:25.005Z,5.82
2022-10-17T07:00:23.309Z,6.18
2022-10-17T07:07:09.456Z,6.22
2022-10-17T07:13:52.563Z,5.93
2022-10-17T07:20:36.032Z,5.35
2022-10-17T07:27:18.703Z,4.65
2022-10-17T07:34:02.508Z,5.15
2022-10-17T07:40:45.733Z,4.75
2022-10-17T07:47:31.288Z,3.97
2022-10-17T07:54:15.288Z,3.67
2022-10-17T08:01:05.966Z,3.33
2022-10-17T08:07:49.807Z,3.00
2022-10-17T08:14:32.134Z,3.35
2022-10-17T08:21:14.499Z,3.30
2022-10-17T08:27:58.093Z,2.25
2022-10-17T08:34:40.460Z,2.42
2022-10-17T08:41:44.515Z,3.40
2022-10-17T08:48:29.843Z,3.20
2022-10-17T08:55:37.883Z,2.85
2022-10-17T09:02:31.369Z,2.70
2022-10-17T09:09:53.132Z,2.83
2022-10-17T09:17:13.260Z,2.38
2022-10-17T09:24:09.660Z,2.60
2022-10-17T09:31:21.803Z,2.45
2022-10-17T09:38:04.935Z,2.83
2022-10-17T09:45:14.410Z,2.80
2022-10-17T09:51:57.145Z,2.58
2022-10-17T09:58:55.768Z,3.05
2022-10-17T10:05:38.416Z,2.60
2022-10-17T10:12:33.206Z,2.75
2022-10-17T10:19:49.412Z,3.15
2022-10-17T10:26:47.477Z,2.95
2022-10-17T10:33:31.900Z,3.95
2022-10-17T10:40:25.174Z,2.65
2022-10-17T10:47:20.613Z,3.10
2022-10-17T10:54:16.205Z,2.65
2022-10-17T11:01:04.559Z,2.88
2022-10-17T11:08:03.938Z,2.80
2022-10-17T11:15:25.159Z,2.88
2022-10-17T11:22:36.527Z,2.40
2022-10-17T11:29:19.390Z,2.05
2022-10-17T11:36:05.644Z,2.83
2022-10-17T11:43:03.775Z,2.80
2022-10-17T11:49:52.233Z,2.13
2022-10-17T11:56:42.690Z,2.65
2022-10-17T12:04:08.114Z,3.15
2022-10-17T12:10:59.727Z,2.83
2022-10-17T12:17:46.805Z,3.05
2022-10-17T12:24:36.290Z,2.85
2022-10-17T12:31:19.781Z,2.20
2022-10-17T12:38:16.166Z,2.30
2022-10-17T12:44:58.551Z,2.28
2022-10-17T12:52:15.059Z,2.30
2022-10-17T12:58:59.706Z,2.20
2022-10-17T13:05:47.837Z,2.20
2022-10-17T13:12:32.333Z,2.05
2022-10-17T13:19:16.974Z,2.13
2022-10-17T13:26:09.823Z,2.42
2022-10-17T13:32:52.567Z,2.10
2022-10-17T13:39:58.014Z,2.53
2022-10-17T13:46:44.028Z,2.53
2022-10-17T13:53:34.707Z,2.22
2022-10-17T14:00:19.585Z,2.20
2022-10-17T14:07:02.667Z,2.20
2022-10-17T14:13:50.069Z,2.45
2022-10-17T14:21:19.415Z,2.00
2022-10-17T14:27:52.429Z,2.20
2022-10-17T14:34:37.288Z,2.45
2022-10-17T14:41:43.567Z,2.60
2022-10-17T14:48:28.578Z,2.25
2022-10-17T14:55:25.435Z,2.60
2022-10-17T15:02:09.380Z,2.63
2022-10-17T15:08:51.690Z,2.15
2022-10-17T15:15:34.576Z,2.53
2022-10-17T15:22:18.066Z,2.28
2022-10-17T15:29:00.939Z,2.42
2022-10-17T15:35:43.706Z,2.40
2022-10-17T15:42:29.412Z,3.05
2022-10-17T15:49:14.455Z,2.90
2022-10-17T15:55:57.840Z,2.53
2022-10-17T16:02:40.195Z,3.03
2022-10-17T16:09:22.515Z,3.45
2022-10-17T16:16:04.971Z,3.85
2022-10-17T16:22:48.166Z,5.68
2022-10-17T16:29:30.496Z,5.07
2022-10-17T16:36:12.931Z,6.07
2022-10-17T16:42:55.251Z,5.50
2022-10-17T16:49:40.439Z,6.07
2022-10-17T16:56:32.498Z,4.80
2022-10-17T17:03:14.839Z,3.80
2022-10-17T17:09:57.159Z,6.43
2022-10-17T17:16:39.532Z,6.93
2022-10-17T17:23:21.874Z,5.75
2022-10-17T17:30:04.515Z,4.55
2022-10-17T17:36:47.093Z,8.27
2022-10-17T17:43:29.934Z,6.10
2022-10-17T17:50:12.567Z,6.57
2022-10-17T17:56:54.946Z,4.28
2022-10-17T18:03:39.477Z,5.85
2022-10-17T18:10:22.326Z,5.50
2022-10-17T18:17:04.780Z,6.38
2022-10-17T18:23:48.520Z,6.28
2022-10-17T18:30:33.756Z,8.05
2022-10-17T18:37:16.969Z,6.40
2022-10-17T18:43:59.749Z,5.82
2022-10-17T18:50:42.387Z,5.55
2022-10-17T18:57:26.217Z,5.38
2022-10-17T19:04:09.259Z,5.95
2022-10-17T19:10:51.739Z,6.88
2022-10-17T19:17:34.041Z,6.65
2022-10-17T19:24:23.308Z,7.53
2022-10-17T19:31:06.443Z,7.95
2022-10-17T19:37:48.908Z,7.72
2022-10-17T19:44:41.795Z,6.90
2022-10-17T19:51:25.265Z,7.45
2022-10-17T19:58:08.015Z,7.30
2022-10-17T20:05:00.040Z,7.70
2022-10-17T20:11:49.915Z,8.15
2022-10-17T20:18:32.416Z,8.00
2022-10-17T20:25:14.929Z,7.85
2022-10-17T20:31:57.626Z,8.20
2022-10-17T20:38:40.673Z,9.95
2022-10-17T20:45:37.419Z,7.93
2022-10-17T20:52:25.688Z,6.80
2022-10-17T20:59:12.257Z,7.47
2022-10-17T21:05:54.592Z,7.88
2022-10-17T21:12:53.109Z,7.50
2022-10-17T21:19:41.397Z,7.78
2022-10-17T21:26:25.468Z,8.43
2022-10-17T21:33:07.854Z,11.52
2022-10-17T21:39:50.192Z,8.52
2022-10-17T21:46:33.347Z,8.48
2022-10-17T21:53:15.637Z,8.50
2022-10-17T21:59:57.989Z,8.52
2022-10-17T22:06:42.347Z,9.43
2022-10-17T22:13:24.719Z,8.82
2022-10-17T22:20:07.403Z,10.00
2022-10-17T22:26:50.193Z,8.88
2022-10-17T22:33:33.480Z,13.13
2022-10-17T22:40:15.921Z,8.45
2022-10-17T22:46:58.263Z,10.23
2022-10-17T22:53:40.847Z,9.73
2022-10-17T23:00:23.266Z,8.63
2022-10-17T23:07:11.134Z,9.38
2022-10-17T23:13:53.455Z,9.30
2022-10-17T23:20:36.515Z,10.68
2022-10-17T23:27:19.112Z,9.57
2022-10-17T23:34:01.472Z,8.98
2022-10-17T23:40:44.216Z,8.65
2022-10-17T23:47:26.793Z,9.45
2022-10-17T23:54:09.155Z,9.07
